sensor_id;sensor_type;location;lat;lon;timestamp;P1;durP1;ratioP1;P2;durP2;ratioP2
21624;SDS011;10974;51.034;3.744;2023-12-04T03:42:36;7.23;;;3.97;;
21624;SDS011;10974;51.034;3.744;2023-12-04T03:45:02;4.90;;;4.00;;
21624;SDS011;10974;51.034;3.744;2023-12-04T03:47:28;4.43;;;3.90;;
21624;SDS011;10974;51.034;3.744;2023-12-04T03:49:54;6.10;;;4.50;;
21624;SDS011;10974;51.034;3.744;2023-12-04T03:52:20;6.67;;;4.50;;
21624;SDS011;10974;51.034;3.744;2023-12-04T03:54:46;5.30;;;4.07;;
21624;SDS011;10974;51.034;3.744;2023-12-04T03:57:12;6.27;;;4.40;;
21624;SDS011;10974;51.034;3.744;2023-12-04T03:59:38;5.67;;;4.27;;
21624;SDS011;10974;51.034;3.744;2023-12-04T04:02:04;6.00;;;4.20;;
21624;SDS011;10974;51.034;3.744;2023-12-04T04:04:30;4.40;;;4.00;;
21624;SDS011;10974;51.034;3.744;2023-12-04T04:06:57;5.50;;;3.77;;
21624;SDS011;10974;51.034;3.744;2023-12-04T04:09:23;5.00;;;4.37;;
21624;SDS011;10974;51.034;3.744;2023-12-04T04:11:49;6.33;;;4.40;;
21624;SDS011;10974;51.034;3.744;2023-12-04T04:14:15;6.77;;;4.40;;
21624;SDS011;10974;51.034;3.744;2023-12-04T04:16:41;5.40;;;4.23;;
21624;SDS011;10974;51.034;3.744;2023-12-04T04:19:07;6.00;;;3.73;;
21624;SDS011;10974;51.034;3.744;2023-12-04T04:21:33;5.03;;;4.10;;
21624;SDS011;10974;51.034;3.744;2023-12-04T04:23:59;5.20;;;4.10;;
21624;SDS011;10974;51.034;3.744;2023-12-04T04:26:25;5.70;;;3.90;;
21624;SDS011;10974;51.034;3.744;2023-12-04T04:28:51;4.93;;;3.90;;
21624;SDS011;10974;51.034;3.744;2023-12-04T04:31:17;5.60;;;4.23;;
21624;SDS011;10974;51.034;3.744;2023-12-04T04:33:43;5.00;;;4.23;;
21624;SDS011;10974;51.034;3.744;2023-12-04T04:36:10;4.90;;;3.97;;
21624;SDS011;10974;51.034;3.744;2023-12-04T04:38:36;5.73;;;4.33;;
21624;SDS011;10974;51.034;3.744;2023-12-04T04:41:05;5.27;;;3.80;;
21624;SDS011;10974;51.034;3.744;2023-12-04T04:43:31;5.43;;;4.03;;
21624;SDS011;10974;51.034;3.744;2023-12-04T04:45:57;5.43;;;4.20;;
21624;SDS011;10974;51.034;3.744;2023-12-04T04:48:23;6.03;;;4.73;;
21624;SDS011;10974;51.034;3.744;2023-12-04T04:50:49;5.33;;;4.20;;
21624;SDS011;10974;51.034;3.744;2023-12-04T04:53:15;5.40;;;3.97;;
21624;SDS011;10974;51.034;3.744;2023-12-04T04:55:41;4.87;;;3.80;;
21624;SDS011;10974;51.034;3.744;2023-12-04T04:58:07;4.60;;;3.30;;
21624;SDS011;10974;51.034;3.744;2023-12-04T05:00:33;5.87;;;4.23;;
21624;SDS011;10974;51.034;3.744;2023-12-04T05:02:59;4.07;;;3.60;;
21624;SDS011;10974;51.034;3.744;2023-12-04T05:05:25;5.70;;;4.00;;
21624;SDS011;10974;51.034;3.744;2023-12-04T05:07:51;4.37;;;3.53;;
21624;SDS011;10974;51.034;3.744;2023-12-04T05:10:17;4.30;;;3.60;;
21624;SDS011;10974;51.034;3.744;2023-12-04T05:12:43;5.60;;;3.57;;
21624;SDS011;10974;51.034;3.744;2023-12-04T05:15:09;5.30;;;3.77;;
21624;SDS011;10974;51.034;3.744;2023-12-04T05:17:36;4.93;;;3.67;;
21624;SDS011;10974;51.034;3.744;2023-12-04T05:20:02;4.07;;;3.67;;
21624;SDS011;10974;51.034;3.744;2023-12-04T05:22:28;3.67;;;3.30;;
21624;SDS011;10974;51.034;3.744;2023-12-04T05:24:54;5.63;;;3.93;;
21624;SDS011;10974;51.034;3.744;2023-12-04T05:27:20;4.40;;;3.60;;
21624;SDS011;10974;51.034;3.744;2023-12-04T05:29:46;6.00;;;4.37;;
21624;SDS011;10974;51.034;3.744;2023-12-04T05:32:12;4.30;;;3.70;;
21624;SDS011;10974;51.034;3.744;2023-12-04T05:34:38;5.50;;;4.43;;
21624;SDS011;10974;51.034;3.744;2023-12-04T05:37:04;5.20;;;3.37;;
21624;SDS011;10974;51.034;3.744;2023-12-04T05:39:30;4.87;;;3.60;;
21624;SDS011;10974;51.034;3.744;2023-12-04T05:41:56;4.37;;;3.40;;
21624;SDS011;10974;51.034;3.744;2023-12-04T05:44:23;4.80;;;3.47;;
21624;SDS011;10974;51.034;3.744;2023-12-04T05:46:49;6.27;;;3.43;;
21624;SDS011;10974;51.034;3.744;2023-12-04T05:49:15;3.80;;;3.30;;
21624;SDS011;10974;51.034;3.744;2023-12-04T05:51:41;4.70;;;3.50;;
21624;SDS011;10974;51.034;3.744;2023-12-04T05:54:07;3.83;;;3.20;;
21624;SDS011;10974;51.034;3.744;2023-12-04T05:56:35;4.20;;;3.27;;
21624;SDS011;10974;51.034;3.744;2023-12-04T05:59:01;4.53;;;4.00;;
21624;SDS011;10974;51.034;3.744;2023-12-04T06:01:28;3.53;;;3.20;;
21624;SDS011;10974;51.034;3.744;2023-12-04T06:03:54;3.83;;;2.97;;
21624;SDS011;10974;51.034;3.744;2023-12-04T06:06:20;3.87;;;2.60;;
21624;SDS011;10974;51.034;3.744;2023-12-04T06:08:46;6.00;;;3.63;;
21624;SDS011;10974;51.034;3.744;2023-12-04T06:11:12;4.40;;;3.77;;
21624;SDS011;10974;51.034;3.744;2023-12-04T06:13:38;3.20;;;2.90;;
21624;SDS011;10974;51.034;3.744;2023-12-04T06:16:05;3.47;;;2.70;;
21624;SDS011;10974;51.034;3.744;2023-12-04T06:18:31;4.37;;;3.40;;
21624;SDS011;10974;51.034;3.744;2023-12-04T06:20:57;4.20;;;3.23;;
21624;SDS011;10974;51.034;3.744;2023-12-04T06:23:23;5.03;;;3.30;;
21624;SDS011;10974;51.034;3.744;2023-12-04T06:25:49;5.60;;;3.80;;
21624;SDS011;10974;51.034;3.744;2023-12-04T06:28:15;4.93;;;3.37;;
21624;SDS011;10974;51.034;3.744;2023-12-04T06:30:44;3.70;;;3.30;;
21624;SDS011;10974;51.034;3.744;2023-12-04T06:33:10;3.90;;;2.77;;
21624;SDS011;10974;51.034;3.744;2023-12-04T06:35:38;5.30;;;3.70;;
21624;SDS011;10974;51.034;3.744;2023-12-04T06:38:05;4.67;;;3.17;;
21624;SDS011;10974;51.034;3.744;2023-12-04T06:40:32;4.30;;;3.67;;
21624;SDS011;10974;51.034;3.744;2023-12-04T06:42:59;4.10;;;3.53;;
21624;SDS011;10974;51.034;3.744;2023-12-04T06:45:25;3.80;;;3.20;;
21624;SDS011;10974;51.034;3.744;2023-12-04T06:47:52;5.70;;;2.83;;
21624;SDS011;10974;51.034;3.744;2023-12-04T06:50:19;4.43;;;3.43;;
21624;SDS011;10974;51.034;3.744;2023-12-04T06:52:46;4.67;;;3.47;;
21624;SDS011;10974;51.034;3.744;2023-12-04T06:55:12;7.00;;;4.03;;
21624;SDS011;10974;51.034;3.744;2023-12-04T06:57:38;4.80;;;3.67;;
21624;SDS011;10974;51.034;3.744;2023-12-04T07:00:04;3.97;;;3.50;;
21624;SDS011;10974;51.034;3.744;2023-12-04T07:02:37;4.90;;;3.70;;
21624;SDS011;10974;51.034;3.744;2023-12-04T07:05:03;6.87;;;3.67;;
21624;SDS011;10974;51.034;3.744;2023-12-04T07:07:29;4.30;;;3.90;;
21624;SDS011;10974;51.034;3.744;2023-12-04T07:09:55;4.40;;;3.87;;
21624;SDS011;10974;51.034;3.744;2023-12-04T07:12:21;3.97;;;3.47;;
21624;SDS011;10974;51.034;3.744;2023-12-04T07:14:47;3.90;;;3.07;;
21624;SDS011;10974;51.034;3.744;2023-12-04T07:17:13;4.90;;;3.73;;
21624;SDS011;10974;51.034;3.744;2023-12-04T07:19:41;4.83;;;3.73;;
21624;SDS011;10974;51.034;3.744;2023-12-04T07:22:07;4.80;;;3.57;;
21624;SDS011;10974;51.034;3.744;2023-12-04T07:24:33;4.93;;;4.30;;
21624;SDS011;10974;51.034;3.744;2023-12-04T07:26:59;4.20;;;3.23;;
21624;SDS011;10974;51.034;3.744;2023-12-04T07:29:25;5.00;;;4.00;;
21624;SDS011;10974;51.034;3.744;2023-12-04T07:31:51;4.80;;;3.60;;
21624;SDS011;10974;51.034;3.744;2023-12-04T07:34:17;5.70;;;3.30;;
21624;SDS011;10974;51.034;3.744;2023-12-04T07:36:43;3.70;;;3.30;;
21624;SDS011;10974;51.034;3.744;2023-12-04T07:39:10;4.60;;;3.80;;
21624;SDS011;10974;51.034;3.744;2023-12-04T07:41:36;5.30;;;3.80;;
21624;SDS011;10974;51.034;3.744;2023-12-04T07:44:02;4.63;;;4.00;;
21624;SDS011;10974;51.034;3.744;2023-12-04T07:46:29;5.57;;;3.50;;
21624;SDS011;10974;51.034;3.744;2023-12-04T07:48:55;4.73;;;4.20;;
21624;SDS011;10974;51.034;3.744;2023-12-04T07:51:21;8.60;;;4.37;;
21624;SDS011;10974;51.034;3.744;2023-12-04T07:53:47;4.87;;;4.03;;
21624;SDS011;10974;51.034;3.744;2023-12-04T07:56:13;5.60;;;3.80;;
21624;SDS011;10974;51.034;3.744;2023-12-04T07:58:39;4.70;;;4.10;;
21624;SDS011;10974;51.034;3.744;2023-12-04T08:01:06;5.60;;;3.50;;
21624;SDS011;10974;51.034;3.744;2023-12-04T08:03:32;4.50;;;3.67;;
21624;SDS011;10974;51.034;3.744;2023-12-04T08:05:58;3.90;;;3.33;;
21624;SDS011;10974;51.034;3.744;2023-12-04T08:08:24;4.37;;;3.70;;
21624;SDS011;10974;51.034;3.744;2023-12-04T08:10:50;5.33;;;4.10;;
21624;SDS011;10974;51.034;3.744;2023-12-04T08:13:16;5.10;;;4.20;;
21624;SDS011;10974;51.034;3.744;2023-12-04T08:15:43;4.97;;;3.73;;
21624;SDS011;10974;51.034;3.744;2023-12-04T08:18:09;5.97;;;4.50;;
21624;SDS011;10974;51.034;3.744;2023-12-04T08:20:35;4.47;;;3.73;;
21624;SDS011;10974;51.034;3.744;2023-12-04T08:23:01;4.67;;;4.07;;
21624;SDS011;10974;51.034;3.744;2023-12-04T08:25:28;4.90;;;4.23;;
21624;SDS011;10974;51.034;3.744;2023-12-04T08:27:55;4.80;;;3.80;;
21624;SDS011;10974;51.034;3.744;2023-12-04T08:30:21;4.40;;;4.00;;
21624;SDS011;10974;51.034;3.744;2023-12-04T08:32:47;5.17;;;4.40;;
21624;SDS011;10974;51.034;3.744;2023-12-04T08:35:13;4.70;;;4.07;;
21624;SDS011;10974;51.034;3.744;2023-12-04T08:37:39;8.63;;;3.97;;
21624;SDS011;10974;51.034;3.744;2023-12-04T08:40:05;4.63;;;4.10;;
21624;SDS011;10974;51.034;3.744;2023-12-04T08:42:33;4.90;;;3.80;;
21624;SDS011;10974;51.034;3.744;2023-12-04T08:44:59;5.10;;;3.83;;
21624;SDS011;10974;51.034;3.744;2023-12-04T08:47:25;4.27;;;3.40;;
21624;SDS011;10974;51.034;3.744;2023-12-04T08:49:51;8.30;;;4.10;;
21624;SDS011;10974;51.034;3.744;2023-12-04T08:52:17;5.10;;;4.20;;
21624;SDS011;10974;51.034;3.744;2023-12-04T08:54:43;4.37;;;3.87;;
21624;SDS011;10974;51.034;3.744;2023-12-04T08:57:09;4.43;;;3.97;;
21624;SDS011;10974;51.034;3.744;2023-12-04T08:59:35;4.87;;;3.60;;
21624;SDS011;10974;51.034;3.744;2023-12-04T09:02:02;5.37;;;4.00;;
21624;SDS011;10974;51.034;3.744;2023-12-04T09:04:31;4.47;;;4.03;;
21624;SDS011;10974;51.034;3.744;2023-12-04T09:06:57;4.90;;;4.30;;
21624;SDS011;10974;51.034;3.744;2023-12-04T09:09:23;4.57;;;3.90;;
21624;SDS011;10974;51.034;3.744;2023-12-04T09:11:49;4.87;;;3.70;;
21624;SDS011;10974;51.034;3.744;2023-12-04T09:14:15;5.43;;;3.70;;
21624;SDS011;10974;51.034;3.744;2023-12-04T09:16:42;4.70;;;3.80;;
21624;SDS011;10974;51.034;3.744;2023-12-04T09:19:08;5.10;;;3.83;;
21624;SDS011;10974;51.034;3.744;2023-12-04T09:21:34;4.37;;;3.60;;
21624;SDS011;10974;51.034;3.744;2023-12-04T09:24:01;6.80;;;4.60;;
21624;SDS011;10974;51.034;3.744;2023-12-04T09:26:27;4.87;;;3.53;;
21624;SDS011;10974;51.034;3.744;2023-12-04T09:28:53;4.57;;;3.77;;
21624;SDS011;10974;51.034;3.744;2023-12-04T09:31:19;4.30;;;3.63;;
21624;SDS011;10974;51.034;3.744;2023-12-04T09:33:45;4.57;;;3.33;;
21624;SDS011;10974;51.034;3.744;2023-12-04T09:36:12;4.33;;;3.93;;
21624;SDS011;10974;51.034;3.744;2023-12-04T09:38:38;4.97;;;3.90;;
21624;SDS011;10974;51.034;3.744;2023-12-04T09:41:04;4.27;;;3.63;;
21624;SDS011;10974;51.034;3.744;2023-12-04T09:43:32;4.13;;;3.73;;
21624;SDS011;10974;51.034;3.744;2023-12-04T09:45:58;4.47;;;3.90;;
21624;SDS011;10974;51.034;3.744;2023-12-04T09:48:28;5.43;;;4.40;;
21624;SDS011;10974;51.034;3.744;2023-12-04T09:50:54;4.43;;;3.50;;
21624;SDS011;10974;51.034;3.744;2023-12-04T09:53:21;4.73;;;3.67;;
21624;SDS011;10974;51.034;3.744;2023-12-04T09:55:48;3.90;;;3.50;;
21624;SDS011;10974;51.034;3.744;2023-12-04T09:58:14;5.10;;;4.33;;
21624;SDS011;10974;51.034;3.744;2023-12-04T10:00:43;5.10;;;3.97;;
21624;SDS011;10974;51.034;3.744;2023-12-04T10:03:09;4.80;;;4.00;;
21624;SDS011;10974;51.034;3.744;2023-12-04T10:05:36;6.80;;;3.70;;
21624;SDS011;10974;51.034;3.744;2023-12-04T10:08:02;4.53;;;3.73;;
21624;SDS011;10974;51.034;3.744;2023-12-04T10:10:28;4.43;;;3.20;;
21624;SDS011;10974;51.034;3.744;2023-12-04T10:12:54;4.50;;;3.77;;
21624;SDS011;10974;51.034;3.744;2023-12-04T10:15:20;4.17;;;3.67;;
21624;SDS011;10974;51.034;3.744;2023-12-04T10:17:46;5.77;;;3.90;;
21624;SDS011;10974;51.034;3.744;2023-12-04T10:20:13;7.57;;;4.10;;
21624;SDS011;10974;51.034;3.744;2023-12-04T10:23:03;9.40;;;5.37;;
21624;SDS011;10974;51.034;3.744;2023-12-04T10:25:30;4.50;;;4.00;;
21624;SDS011;10974;51.034;3.744;2023-12-04T10:28:11;4.67;;;3.97;;
21624;SDS011;10974;51.034;3.744;2023-12-04T10:30:40;4.97;;;4.00;;
21624;SDS011;10974;51.034;3.744;2023-12-04T10:33:07;4.70;;;4.10;;
21624;SDS011;10974;51.034;3.744;2023-12-04T10:35:34;4.90;;;3.93;;
21624;SDS011;10974;51.034;3.744;2023-12-04T10:38:04;4.10;;;3.60;;
21624;SDS011;10974;51.034;3.744;2023-12-04T10:40:31;4.17;;;3.70;;
21624;SDS011;10974;51.034;3.744;2023-12-04T10:45:39;5.50;;;4.17;;
21624;SDS011;10974;51.034;3.744;2023-12-04T10:48:06;5.40;;;3.97;;
21624;SDS011;10974;51.034;3.744;2023-12-04T10:50:33;5.30;;;3.80;;
21624;SDS011;10974;51.034;3.744;2023-12-04T10:53:09;4.40;;;3.30;;
21624;SDS011;10974;51.034;3.744;2023-12-04T10:55:36;4.70;;;4.03;;
21624;SDS011;10974;51.034;3.744;2023-12-04T10:58:04;5.80;;;4.30;;
21624;SDS011;10974;51.034;3.744;2023-12-04T11:00:32;5.17;;;4.20;;
21624;SDS011;10974;51.034;3.744;2023-12-04T11:03:04;8.57;;;4.17;;
21624;SDS011;10974;51.034;3.744;2023-12-04T11:05:30;4.37;;;3.83;;
21624;SDS011;10974;51.034;3.744;2023-12-04T11:08:00;5.80;;;4.30;;
21624;SDS011;10974;51.034;3.744;2023-12-04T11:10:27;4.27;;;3.70;;
21624;SDS011;10974;51.034;3.744;2023-12-04T11:13:13;5.60;;;3.87;;
21624;SDS011;10974;51.034;3.744;2023-12-04T11:15:41;6.07;;;4.40;;
21624;SDS011;10974;51.034;3.744;2023-12-04T11:18:07;4.77;;;3.60;;
21624;SDS011;10974;51.034;3.744;2023-12-04T11:20:37;4.00;;;3.53;;
21624;SDS011;10974;51.034;3.744;2023-12-04T11:23:05;5.20;;;3.73;;
21624;SDS011;10974;51.034;3.744;2023-12-04T11:25:32;4.80;;;3.57;;
21624;SDS011;10974;51.034;3.744;2023-12-04T11:28:00;4.50;;;3.77;;
21624;SDS011;10974;51.034;3.744;2023-12-04T11:30:26;4.53;;;3.40;;
21624;SDS011;10974;51.034;3.744;2023-12-04T11:32:54;5.30;;;3.50;;
21624;SDS011;10974;51.034;3.744;2023-12-04T11:35:26;4.60;;;3.77;;
21624;SDS011;10974;51.034;3.744;2023-12-04T11:37:53;4.00;;;3.60;;
21624;SDS011;10974;51.034;3.744;2023-12-04T11:40:19;7.30;;;5.27;;
21624;SDS011;10974;51.034;3.744;2023-12-04T11:42:46;3.60;;;2.93;;
21624;SDS011;10974;51.034;3.744;2023-12-04T11:45:18;4.20;;;3.30;;
21624;SDS011;10974;51.034;3.744;2023-12-04T11:47:51;4.20;;;3.47;;
21624;SDS011;10974;51.034;3.744;2023-12-04T11:50:20;4.57;;;3.70;;
21624;SDS011;10974;51.034;3.744;2023-12-04T11:52:47;3.83;;;3.33;;
21624;SDS011;10974;51.034;3.744;2023-12-04T11:55:17;5.37;;;4.10;;
21624;SDS011;10974;51.034;3.744;2023-12-04T11:57:43;5.60;;;3.70;;
21624;SDS011;10974;51.034;3.744;2023-12-04T12:02:40;3.93;;;3.23;;
21624;SDS011;10974;51.034;3.744;2023-12-04T12:05:06;6.10;;;3.10;;
21624;SDS011;10974;51.034;3.744;2023-12-04T12:07:33;3.87;;;3.23;;
21624;SDS011;10974;51.034;3.744;2023-12-04T12:09:59;3.90;;;3.50;;
21624;SDS011;10974;51.034;3.744;2023-12-04T12:12:28;4.40;;;3.90;;
21624;SDS011;10974;51.034;3.744;2023-12-04T12:14:54;4.80;;;3.40;;
21624;SDS011;10974;51.034;3.744;2023-12-04T12:17:20;3.37;;;3.03;;
21624;SDS011;10974;51.034;3.744;2023-12-04T12:19:46;3.90;;;3.17;;
21624;SDS011;10974;51.034;3.744;2023-12-04T12:22:12;3.73;;;3.23;;
21624;SDS011;10974;51.034;3.744;2023-12-04T12:24:39;3.97;;;3.50;;
21624;SDS011;10974;51.034;3.744;2023-12-04T12:27:05;3.53;;;3.07;;
21624;SDS011;10974;51.034;3.744;2023-12-04T12:29:31;3.47;;;2.97;;
21624;SDS011;10974;51.034;3.744;2023-12-04T12:31:57;3.80;;;3.50;;
21624;SDS011;10974;51.034;3.744;2023-12-04T12:34:23;4.80;;;2.87;;
21624;SDS011;10974;51.034;3.744;2023-12-04T12:36:49;4.50;;;3.17;;
21624;SDS011;10974;51.034;3.744;2023-12-04T12:39:15;3.47;;;3.10;;
21624;SDS011;10974;51.034;3.744;2023-12-04T12:41:48;2.90;;;2.70;;
21624;SDS011;10974;51.034;3.744;2023-12-04T12:44:14;5.23;;;3.40;;
21624;SDS011;10974;51.034;3.744;2023-12-04T12:46:41;7.67;;;5.43;;
21624;SDS011;10974;51.034;3.744;2023-12-04T12:49:07;3.87;;;3.47;;
21624;SDS011;10974;51.034;3.744;2023-12-04T12:51:33;4.10;;;3.33;;
21624;SDS011;10974;51.034;3.744;2023-12-04T12:53:59;3.73;;;3.33;;
21624;SDS011;10974;51.034;3.744;2023-12-04T12:56:25;4.33;;;2.87;;
21624;SDS011;10974;51.034;3.744;2023-12-04T12:58:52;3.33;;;2.83;;
21624;SDS011;10974;51.034;3.744;2023-12-04T13:01:18;3.80;;;2.97;;
21624;SDS011;10974;51.034;3.744;2023-12-04T13:03:45;3.90;;;2.93;;
21624;SDS011;10974;51.034;3.744;2023-12-04T13:06:12;3.70;;;3.10;;
21624;SDS011;10974;51.034;3.744;2023-12-04T13:08:38;3.90;;;3.00;;
21624;SDS011;10974;51.034;3.744;2023-12-04T13:11:05;4.80;;;3.50;;
21624;SDS011;10974;51.034;3.744;2023-12-04T13:13:31;4.20;;;3.03;;
21624;SDS011;10974;51.034;3.744;2023-12-04T13:15:57;3.30;;;3.00;;
21624;SDS011;10974;51.034;3.744;2023-12-04T13:18:23;3.90;;;3.07;;
21624;SDS011;10974;51.034;3.744;2023-12-04T13:20:50;3.70;;;3.03;;
21624;SDS011;10974;51.034;3.744;2023-12-04T13:23:16;3.10;;;2.80;;
21624;SDS011;10974;51.034;3.744;2023-12-04T13:25:42;4.20;;;3.00;;
21624;SDS011;10974;51.034;3.744;2023-12-04T13:28:08;3.30;;;2.93;;
21624;SDS011;10974;51.034;3.744;2023-12-04T13:30:34;3.10;;;2.70;;
21624;SDS011;10974;51.034;3.744;2023-12-04T13:33:01;5.30;;;3.43;;
21624;SDS011;10974;51.034;3.744;2023-12-04T13:35:28;3.20;;;2.90;;
21624;SDS011;10974;51.034;3.744;2023-12-04T13:37:54;3.60;;;3.30;;
21624;SDS011;10974;51.034;3.744;2023-12-04T13:40:21;3.93;;;2.73;;
21624;SDS011;10974;51.034;3.744;2023-12-04T13:42:51;3.80;;;3.30;;
21624;SDS011;10974;51.034;3.744;2023-12-04T13:45:44;3.67;;;3.20;;
21624;SDS011;10974;51.034;3.744;2023-12-04T13:48:10;4.03;;;3.27;;
21624;SDS011;10974;51.034;3.744;2023-12-04T13:50:36;3.17;;;2.80;;
21624;SDS011;10974;51.034;3.744;2023-12-04T13:53:02;3.20;;;2.90;;
21624;SDS011;10974;51.034;3.744;2023-12-04T13:55:30;5.57;;;3.50;;
21624;SDS011;10974;51.034;3.744;2023-12-04T13:58:11;3.70;;;2.90;;
21624;SDS011;10974;51.034;3.744;2023-12-04T14:00:57;3.10;;;2.80;;
21624;SDS011;10974;51.034;3.744;2023-12-04T14:03:23;4.03;;;2.90;;
21624;SDS011;10974;51.034;3.744;2023-12-04T14:05:49;4.77;;;2.80;;
21624;SDS011;10974;51.034;3.744;2023-12-04T14:08:15;3.30;;;3.00;;
21624;SDS011;10974;51.034;3.744;2023-12-04T14:10:41;3.17;;;2.87;;
21624;SDS011;10974;51.034;3.744;2023-12-04T14:13:07;3.30;;;3.00;;
21624;SDS011;10974;51.034;3.744;2023-12-04T14:15:34;3.40;;;2.70;;
21624;SDS011;10974;51.034;3.744;2023-12-04T14:18:00;4.07;;;3.60;;
21624;SDS011;10974;51.034;3.744;2023-12-04T14:20:26;3.53;;;2.90;;
21624;SDS011;10974;51.034;3.744;2023-12-04T14:22:52;3.60;;;3.30;;
21624;SDS011;10974;51.034;3.744;2023-12-04T14:25:18;4.13;;;3.50;;
21624;SDS011;10974;51.034;3.744;2023-12-04T14:27:44;4.37;;;3.13;;
21624;SDS011;10974;51.034;3.744;2023-12-04T14:30:10;4.63;;;3.50;;
21624;SDS011;10974;51.034;3.744;2023-12-04T14:32:36;4.87;;;3.33;;
21624;SDS011;10974;51.034;3.744;2023-12-04T14:35:03;5.20;;;3.93;;
21624;SDS011;10974;51.034;3.744;2023-12-04T14:37:30;5.20;;;3.60;;
21624;SDS011;10974;51.034;3.744;2023-12-04T14:39:56;4.00;;;3.57;;
21624;SDS011;10974;51.034;3.744;2023-12-04T14:42:22;4.23;;;3.50;;
21624;SDS011;10974;51.034;3.744;2023-12-04T14:44:48;4.57;;;4.00;;
21624;SDS011;10974;51.034;3.744;2023-12-04T14:47:14;4.23;;;3.67;;
21624;SDS011;10974;51.034;3.744;2023-12-04T14:49:40;4.67;;;3.43;;
21624;SDS011;10974;51.034;3.744;2023-12-04T14:52:06;5.00;;;4.07;;
21624;SDS011;10974;51.034;3.744;2023-12-04T14:54:33;4.63;;;3.40;;
21624;SDS011;10974;51.034;3.744;2023-12-04T14:57:02;7.03;;;4.23;;
21624;SDS011;10974;51.034;3.744;2023-12-04T14:59:37;4.63;;;4.00;;
21624;SDS011;10974;51.034;3.744;2023-12-04T15:02:18;6.40;;;3.70;;
21624;SDS011;10974;51.034;3.744;2023-12-04T15:05:03;7.17;;;3.73;;
21624;SDS011;10974;51.034;3.744;2023-12-04T15:07:29;4.80;;;3.80;;
21624;SDS011;10974;51.034;3.744;2023-12-04T15:10:20;3.60;;;3.30;;
21624;SDS011;10974;51.034;3.744;2023-12-04T15:12:46;5.10;;;3.90;;
21624;SDS011;10974;51.034;3.744;2023-12-04T15:15:22;5.27;;;3.80;;
21624;SDS011;10974;51.034;3.744;2023-12-04T15:18:06;6.57;;;3.60;;
21624;SDS011;10974;51.034;3.744;2023-12-04T15:20:50;5.60;;;3.47;;
21624;SDS011;10974;51.034;3.744;2023-12-04T15:23:16;3.97;;;3.53;;
21624;SDS011;10974;51.034;3.744;2023-12-04T15:25:44;5.13;;;3.73;;
21624;SDS011;10974;51.034;3.744;2023-12-04T15:28:10;4.30;;;3.77;;
21624;SDS011;10974;51.034;3.744;2023-12-04T15:30:39;5.30;;;3.37;;
21624;SDS011;10974;51.034;3.744;2023-12-04T15:33:06;3.50;;;3.20;;
21624;SDS011;10974;51.034;3.744;2023-12-04T15:35:32;10.40;;;4.17;;
21624;SDS011;10974;51.034;3.744;2023-12-04T15:37:58;3.87;;;3.27;;
21624;SDS011;10974;51.034;3.744;2023-12-04T15:40:24;3.50;;;3.20;;
21624;SDS011;10974;51.034;3.744;2023-12-04T15:42:50;4.63;;;3.83;;
21624;SDS011;10974;51.034;3.744;2023-12-04T15:45:17;6.17;;;4.40;;
21624;SDS011;10974;51.034;3.744;2023-12-04T15:47:43;5.77;;;4.47;;
21624;SDS011;10974;51.034;3.744;2023-12-04T15:50:09;5.60;;;4.30;;
21624;SDS011;10974;51.034;3.744;2023-12-04T15:52:35;4.87;;;4.20;;
21624;SDS011;10974;51.034;3.744;2023-12-04T15:55:05;3.77;;;3.37;;
21624;SDS011;10974;51.034;3.744;2023-12-04T15:57:33;5.97;;;5.33;;
21624;SDS011;10974;51.034;3.744;2023-12-04T15:59:59;5.43;;;4.47;;
21624;SDS011;10974;51.034;3.744;2023-12-04T16:02:25;5.00;;;3.67;;
21624;SDS011;10974;51.034;3.744;2023-12-04T16:04:51;4.50;;;3.77;;
21624;SDS011;10974;51.034;3.744;2023-12-04T16:07:17;5.17;;;4.23;;
21624;SDS011;10974;51.034;3.744;2023-12-04T16:09:43;5.53;;;4.33;;
21624;SDS011;10974;51.034;3.744;2023-12-04T16:12:09;4.70;;;3.80;;
21624;SDS011;10974;51.034;3.744;2023-12-04T16:14:35;4.43;;;4.03;;
21624;SDS011;10974;51.034;3.744;2023-12-04T16:17:01;6.07;;;4.30;;
21624;SDS011;10974;51.034;3.744;2023-12-04T16:19:27;5.00;;;3.70;;
21624;SDS011;10974;51.034;3.744;2023-12-04T16:21:55;5.43;;;3.60;;
21624;SDS011;10974;51.034;3.744;2023-12-04T16:24:21;5.17;;;4.03;;
21624;SDS011;10974;51.034;3.744;2023-12-04T16:26:48;5.10;;;4.00;;
21624;SDS011;10974;51.034;3.744;2023-12-04T16:29:17;4.77;;;4.27;;
21624;SDS011;10974;51.034;3.744;2023-12-04T16:31:44;5.27;;;4.43;;
21624;SDS011;10974;51.034;3.744;2023-12-04T16:34:11;5.47;;;4.57;;
21624;SDS011;10974;51.034;3.744;2023-12-04T16:36:37;4.53;;;4.10;;
21624;SDS011;10974;51.034;3.744;2023-12-04T16:39:04;6.47;;;4.60;;
21624;SDS011;10974;51.034;3.744;2023-12-04T16:41:30;5.20;;;4.23;;
21624;SDS011;10974;51.034;3.744;2023-12-04T16:43:56;4.97;;;4.47;;
21624;SDS011;10974;51.034;3.744;2023-12-04T16:46:22;5.07;;;4.57;;
21624;SDS011;10974;51.034;3.744;2023-12-04T16:48:48;5.70;;;4.80;;
21624;SDS011;10974;51.034;3.744;2023-12-04T16:51:14;5.37;;;4.67;;
21624;SDS011;10974;51.034;3.744;2023-12-04T16:53:40;5.93;;;4.93;;
21624;SDS011;10974;51.034;3.744;2023-12-04T16:56:10;6.07;;;4.80;;
21624;SDS011;10974;51.034;3.744;2023-12-04T16:58:37;5.07;;;4.30;;
21624;SDS011;10974;51.034;3.744;2023-12-04T17:01:03;5.30;;;4.70;;
21624;SDS011;10974;51.034;3.744;2023-12-04T17:03:29;5.00;;;4.50;;
21624;SDS011;10974;51.034;3.744;2023-12-04T17:05:55;9.80;;;5.83;;
21624;SDS011;10974;51.034;3.744;2023-12-04T17:08:21;7.73;;;4.80;;
21624;SDS011;10974;51.034;3.744;2023-12-04T17:10:47;8.83;;;6.10;;
21624;SDS011;10974;51.034;3.744;2023-12-04T17:13:14;12.63;;;7.27;;
21624;SDS011;10974;51.034;3.744;2023-12-04T17:15:40;7.30;;;4.77;;
21624;SDS011;10974;51.034;3.744;2023-12-04T17:18:06;8.60;;;5.50;;
21624;SDS011;10974;51.034;3.744;2023-12-04T17:20:35;5.10;;;4.57;;
21624;SDS011;10974;51.034;3.744;2023-12-04T17:23:02;6.77;;;5.50;;
21624;SDS011;10974;51.034;3.744;2023-12-04T17:25:28;7.20;;;5.17;;
21624;SDS011;10974;51.034;3.744;2023-12-04T17:27:55;7.30;;;4.70;;
21624;SDS011;10974;51.034;3.744;2023-12-04T17:30:21;7.37;;;5.20;;
21624;SDS011;10974;51.034;3.744;2023-12-04T17:32:48;5.20;;;4.67;;
21624;SDS011;10974;51.034;3.744;2023-12-04T17:35:14;8.27;;;5.30;;
21624;SDS011;10974;51.034;3.744;2023-12-04T17:37:40;6.53;;;4.23;;
21624;SDS011;10974;51.034;3.744;2023-12-04T17:40:06;4.80;;;4.40;;
21624;SDS011;10974;51.034;3.744;2023-12-04T17:42:33;7.67;;;5.00;;
21624;SDS011;10974;51.034;3.744;2023-12-04T17:45:01;5.20;;;4.53;;
21624;SDS011;10974;51.034;3.744;2023-12-04T17:47:28;6.27;;;4.57;;
21624;SDS011;10974;51.034;3.744;2023-12-04T17:49:54;5.00;;;4.53;;
21624;SDS011;10974;51.034;3.744;2023-12-04T17:52:21;5.10;;;4.57;;
21624;SDS011;10974;51.034;3.744;2023-12-04T17:54:47;5.43;;;4.87;;
21624;SDS011;10974;51.034;3.744;2023-12-04T17:57:13;5.43;;;4.90;;
21624;SDS011;10974;51.034;3.744;2023-12-04T17:59:39;8.43;;;4.73;;
21624;SDS011;10974;51.034;3.744;2023-12-04T18:02:07;5.73;;;4.73;;
21624;SDS011;10974;51.034;3.744;2023-12-04T18:04:34;5.60;;;4.73;;
21624;SDS011;10974;51.034;3.744;2023-12-04T18:07:00;5.97;;;4.90;;
21624;SDS011;10974;51.034;3.744;2023-12-04T18:09:28;5.70;;;4.90;;
21624;SDS011;10974;51.034;3.744;2023-12-04T18:11:54;6.27;;;5.17;;
21624;SDS011;10974;51.034;3.744;2023-12-04T18:14:21;5.40;;;4.63;;
21624;SDS011;10974;51.034;3.744;2023-12-04T18:16:47;4.97;;;4.50;;
21624;SDS011;10974;51.034;3.744;2023-12-04T18:19:14;5.17;;;4.67;;
21624;SDS011;10974;51.034;3.744;2023-12-04T18:21:40;5.77;;;4.80;;
21624;SDS011;10974;51.034;3.744;2023-12-04T18:24:07;7.53;;;5.10;;
21624;SDS011;10974;51.034;3.744;2023-12-04T18:26:33;4.70;;;4.23;;
21624;SDS011;10974;51.034;3.744;2023-12-04T18:28:59;5.30;;;4.80;;
21624;SDS011;10974;51.034;3.744;2023-12-04T18:31:25;6.00;;;5.40;;
21624;SDS011;10974;51.034;3.744;2023-12-04T18:33:51;6.50;;;5.43;;